sensor_id;sensor_type;location;lat;lon;timestamp;temperature;humidity
41318;DHT22;27067;51.554;7.026;2023-05-07T00:01:30;18.40;96.60
41318;DHT22;27067;51.554;7.026;2023-05-07T00:03:56;18.40;96.60
41318;DHT22;27067;51.554;7.026;2023-05-07T00:06:22;18.40;96.60
41318;DHT22;27067;51.554;7.026;2023-05-07T00:08:48;18.40;96.60
41318;DHT22;27067;51.554;7.026;2023-05-07T00:11:13;18.40;96.60
41318;DHT22;27067;51.554;7.026;2023-05-07T00:13:40;18.40;96.60
41318;DHT22;27067;51.554;7.026;2023-05-07T00:16:05;18.40;96.60
41318;DHT22;27067;51.554;7.026;2023-05-07T00:18:31;18.40;96.60
41318;DHT22;27067;51.554;7.026;2023-05-07T00:20:57;18.50;96.60
41318;DHT22;27067;51.554;7.026;2023-05-07T00:23:23;18.40;96.60
41318;DHT22;27067;51.554;7.026;2023-05-07T00:25:48;18.40;96.60
41318;DHT22;27067;51.554;7.026;2023-05-07T00:28:14;18.50;96.60
41318;DHT22;27067;51.554;7.026;2023-05-07T00:30:40;18.40;96.60
41318;DHT22;27067;51.554;7.026;2023-05-07T00:33:06;18.40;96.50
41318;DHT22;27067;51.554;7.026;2023-05-07T00:35:31;18.40;96.60
41318;DHT22;27067;51.554;7.026;2023-05-07T00:37:57;18.40;96.60
41318;DHT22;27067;51.554;7.026;2023-05-07T00:40:23;18.50;96.60
41318;DHT22;27067;51.554;7.026;2023-05-07T00:42:49;18.40;96.50
41318;DHT22;27067;51.554;7.026;2023-05-07T00:45:15;18.40;96.60
41318;DHT22;27067;51.554;7.026;2023-05-07T00:47:42;18.40;96.50
41318;DHT22;27067;51.554;7.026;2023-05-07T00:50:08;18.40;96.60
41318;DHT22;27067;51.554;7.026;2023-05-07T00:52:37;18.40;96.50
41318;DHT22;27067;51.554;7.026;2023-05-07T00:55:06;18.40;96.50
41318;DHT22;27067;51.554;7.026;2023-05-07T00:57:40;18.40;96.50
41318;DHT22;27067;51.554;7.026;2023-05-07T01:00:07;18.40;96.50
41318;DHT22;27067;51.554;7.026;2023-05-07T01:02:38;18.40;96.50
41318;DHT22;27067;51.554;7.026;2023-05-07T01:05:06;18.40;96.50
41318;DHT22;27067;51.554;7.026;2023-05-07T01:07:33;18.40;96.80
41318;DHT22;27067;51.554;7.026;2023-05-07T01:10:00;18.50;96.60
41318;DHT22;27067;51.554;7.026;2023-05-07T01:12:29;18.50;96.60
41318;DHT22;27067;51.554;7.026;2023-05-07T01:14:55;18.40;96.50
41318;DHT22;27067;51.554;7.026;2023-05-07T01:17:21;18.40;96.50
41318;DHT22;27067;51.554;7.026;2023-05-07T01:19:47;18.40;96.50
41318;DHT22;27067;51.554;7.026;2023-05-07T01:22:15;18.40;96.50
41318;DHT22;27067;51.554;7.026;2023-05-07T01:24:42;18.40;96.50
41318;DHT22;27067;51.554;7.026;2023-05-07T01:27:08;18.40;96.50
41318;DHT22;27067;51.554;7.026;2023-05-07T01:29:34;18.40;96.50
41318;DHT22;27067;51.554;7.026;2023-05-07T01:32:00;18.40;96.50
41318;DHT22;27067;51.554;7.026;2023-05-07T01:34:32;18.50;96.60
41318;DHT22;27067;51.554;7.026;2023-05-07T01:36:58;18.40;96.50
41318;DHT22;27067;51.554;7.026;2023-05-07T01:39:26;18.40;96.50
41318;DHT22;27067;51.554;7.026;2023-05-07T01:41:56;18.40;96.50
41318;DHT22;27067;51.554;7.026;2023-05-07T01:44:24;18.40;96.50
41318;DHT22;27067;51.554;7.026;2023-05-07T01:46:50;18.40;96.50
41318;DHT22;27067;51.554;7.026;2023-05-07T01:49:17;18.40;96.50
41318;DHT22;27067;51.554;7.026;2023-05-07T01:51:43;18.50;96.50
41318;DHT22;27067;51.554;7.026;2023-05-07T01:54:09;18.40;96.50
41318;DHT22;27067;51.554;7.026;2023-05-07T01:56:35;18.40;96.50
41318;DHT22;27067;51.554;7.026;2023-05-07T01:59:01;18.50;96.50
41318;DHT22;27067;51.554;7.026;2023-05-07T02:01:27;18.50;96.50
41318;DHT22;27067;51.554;7.026;2023-05-07T02:03:53;18.40;96.50
41318;DHT22;27067;51.554;7.026;2023-05-07T02:06:19;18.40;96.50
41318;DHT22;27067;51.554;7.026;2023-05-07T02:08:46;18.40;96.50
41318;DHT22;27067;51.554;7.026;2023-05-07T02:11:12;18.40;96.50
41318;DHT22;27067;51.554;7.026;2023-05-07T02:13:37;18.40;96.50
41318;DHT22;27067;51.554;7.026;2023-05-07T02:16:03;18.40;96.50
41318;DHT22;27067;51.554;7.026;2023-05-07T02:18:29;18.40;96.50
41318;DHT22;27067;51.554;7.026;2023-05-07T02:20:55;18.40;96.50
41318;DHT22;27067;51.554;7.026;2023-05-07T02:23:21;18.40;96.50
41318;DHT22;27067;51.554;7.026;2023-05-07T02:25:46;18.40;96.50
41318;DHT22;27067;51.554;7.026;2023-05-07T02:28:12;18.40;96.50
41318;DHT22;27067;51.554;7.026;2023-05-07T02:30:38;18.40;96.50
41318;DHT22;27067;51.554;7.026;2023-05-07T02:33:04;18.40;96.50
41318;DHT22;27067;51.554;7.026;2023-05-07T02:35:30;18.50;96.60
41318;DHT22;27067;51.554;7.026;2023-05-07T02:37:55;18.40;96.50
41318;DHT22;27067;51.554;7.026;2023-05-07T02:40:21;18.40;96.50
41318;DHT22;27067;51.554;7.026;2023-05-07T02:42:47;18.40;96.50
41318;DHT22;27067;51.554;7.026;2023-05-07T02:45:12;18.40;96.50
41318;DHT22;27067;51.554;7.026;2023-05-07T02:47:38;18.40;96.50
41318;DHT22;27067;51.554;7.026;2023-05-07T02:50:04;18.40;96.50
41318;DHT22;27067;51.554;7.026;2023-05-07T02:52:30;18.50;96.50
41318;DHT22;27067;51.554;7.026;2023-05-07T02:54:56;18.50;96.50
41318;DHT22;27067;51.554;7.026;2023-05-07T02:57:21;18.40;96.50
41318;DHT22;27067;51.554;7.026;2023-05-07T02:59:47;18.40;96.50
41318;DHT22;27067;51.554;7.026;2023-05-07T03:02:13;18.40;96.50
41318;DHT22;27067;51.554;7.026;2023-05-07T03:04:42;18.40;96.50
41318;DHT22;27067;51.554;7.026;2023-05-07T03:07:07;18.40;96.50
41318;DHT22;27067;51.554;7.026;2023-05-07T03:09:33;18.40;96.50
41318;DHT22;27067;51.554;7.026;2023-05-07T03:11:58;18.40;96.50
41318;DHT22;27067;51.554;7.026;2023-05-07T03:14:24;18.40;96.50
41318;DHT22;27067;51.554;7.026;2023-05-07T03:16:50;18.40;96.40
41318;DHT22;27067;51.554;7.026;2023-05-07T03:19:15;18.40;96.50
41318;DHT22;27067;51.554;7.026;2023-05-07T03:21:41;18.40;96.50
41318;DHT22;27067;51.554;7.026;2023-05-07T03:24:07;18.40;96.20
41318;DHT22;27067;51.554;7.026;2023-05-07T03:26:32;18.40;96.50
41318;DHT22;27067;51.554;7.026;2023-05-07T03:28:58;18.40;96.50
41318;DHT22;27067;51.554;7.026;2023-05-07T03:31:24;18.40;96.50
41318;DHT22;27067;51.554;7.026;2023-05-07T03:33:51;18.40;96.50
41318;DHT22;27067;51.554;7.026;2023-05-07T03:36:17;18.40;96.50
41318;DHT22;27067;51.554;7.026;2023-05-07T03:38:43;18.40;96.50
41318;DHT22;27067;51.554;7.026;2023-05-07T03:41:08;18.40;96.50
41318;DHT22;27067;51.554;7.026;2023-05-07T03:43:34;18.40;96.50
41318;DHT22;27067;51.554;7.026;2023-05-07T03:46:00;18.40;96.50
41318;DHT22;27067;51.554;7.026;2023-05-07T03:48:25;18.40;96.50
41318;DHT22;27067;51.554;7.026;2023-05-07T03:50:51;18.40;96.50
41318;DHT22;27067;51.554;7.026;2023-05-07T03:53:17;18.40;96.50
41318;DHT22;27067;51.554;7.026;2023-05-07T03:55:42;18.40;96.40
41318;DHT22;27067;51.554;7.026;2023-05-07T03:58:08;18.40;96.50
41318;DHT22;27067;51.554;7.026;2023-05-07T04:00:33;18.40;96.50
41318;DHT22;27067;51.554;7.026;2023-05-07T04:03:03;18.40;96.40
41318;DHT22;27067;51.554;7.026;2023-05-07T04:05:30;18.50;96.50
41318;DHT22;27067;51.554;7.026;2023-05-07T04:07:57;18.40;96.50
41318;DHT22;27067;51.554;7.026;2023-05-07T04:10:23;18.40;96.50
41318;DHT22;27067;51.554;7.026;2023-05-07T04:12:48;18.40;96.50
41318;DHT22;27067;51.554;7.026;2023-05-07T04:15:14;18.40;96.50
41318;DHT22;27067;51.554;7.026;2023-05-07T04:17:39;18.40;96.50
41318;DHT22;27067;51.554;7.026;2023-05-07T04:20:10;18.40;96.50
41318;DHT22;27067;51.554;7.026;2023-05-07T04:22:36;18.40;96.50
41318;DHT22;27067;51.554;7.026;2023-05-07T04:25:02;18.40;96.50
41318;DHT22;27067;51.554;7.026;2023-05-07T04:27:28;18.40;96.50
41318;DHT22;27067;51.554;7.026;2023-05-07T04:29:54;18.40;96.50
41318;DHT22;27067;51.554;7.026;2023-05-07T04:32:21;18.40;96.40
41318;DHT22;27067;51.554;7.026;2023-05-07T04:34:47;18.40;96.40
41318;DHT22;27067;51.554;7.026;2023-05-07T04:37:13;18.40;96.40
41318;DHT22;27067;51.554;7.026;2023-05-07T04:39:38;18.40;96.40
41318;DHT22;27067;51.554;7.026;2023-05-07T04:42:04;18.40;96.40
41318;DHT22;27067;51.554;7.026;2023-05-07T04:44:30;18.40;96.40
41318;DHT22;27067;51.554;7.026;2023-05-07T04:46:56;18.40;96.40
41318;DHT22;27067;51.554;7.026;2023-05-07T04:49:22;18.40;96.40
41318;DHT22;27067;51.554;7.026;2023-05-07T04:51:48;18.40;96.40
41318;DHT22;27067;51.554;7.026;2023-05-07T04:54:13;18.40;96.40
41318;DHT22;27067;51.554;7.026;2023-05-07T04:56:39;18.40;96.40
41318;DHT22;27067;51.554;7.026;2023-05-07T04:59:04;18.40;96.40
41318;DHT22;27067;51.554;7.026;2023-05-07T05:01:31;18.40;96.70
41318;DHT22;27067;51.554;7.026;2023-05-07T05:03:56;18.40;96.40
41318;DHT22;27067;51.554;7.026;2023-05-07T05:06:22;18.40;96.40
41318;DHT22;27067;51.554;7.026;2023-05-07T05:08:47;18.40;96.40
41318;DHT22;27067;51.554;7.026;2023-05-07T05:11:13;18.40;96.40
41318;DHT22;27067;51.554;7.026;2023-05-07T05:13:39;18.40;96.40
41318;DHT22;27067;51.554;7.026;2023-05-07T05:16:05;18.40;96.40
41318;DHT22;27067;51.554;7.026;2023-05-07T05:18:31;18.40;96.40
41318;DHT22;27067;51.554;7.026;2023-05-07T05:20:56;18.40;96.40
41318;DHT22;27067;51.554;7.026;2023-05-07T05:23:22;18.40;96.40
41318;DHT22;27067;51.554;7.026;2023-05-07T05:25:47;18.40;96.40
41318;DHT22;27067;51.554;7.026;2023-05-07T05:28:13;18.40;96.40
41318;DHT22;27067;51.554;7.026;2023-05-07T05:30:39;18.40;96.40
41318;DHT22;27067;51.554;7.026;2023-05-07T05:33:05;18.40;96.40
41318;DHT22;27067;51.554;7.026;2023-05-07T05:35:31;18.40;96.40
41318;DHT22;27067;51.554;7.026;2023-05-07T05:37:57;18.40;96.40
41318;DHT22;27067;51.554;7.026;2023-05-07T05:40:22;18.40;96.40
41318;DHT22;27067;51.554;7.026;2023-05-07T05:42:48;18.40;96.40
41318;DHT22;27067;51.554;7.026;2023-05-07T05:45:14;18.40;96.40
41318;DHT22;27067;51.554;7.026;2023-05-07T05:47:39;18.40;96.40
41318;DHT22;27067;51.554;7.026;2023-05-07T05:50:06;18.40;96.30
41318;DHT22;27067;51.554;7.026;2023-05-07T05:52:32;18.40;96.40
41318;DHT22;27067;51.554;7.026;2023-05-07T05:54:57;18.40;96.40
41318;DHT22;27067;51.554;7.026;2023-05-07T05:57:23;18.40;96.40
41318;DHT22;27067;51.554;7.026;2023-05-07T05:59:48;18.40;96.40
41318;DHT22;27067;51.554;7.026;2023-05-07T06:02:14;18.40;96.40
41318;DHT22;27067;51.554;7.026;2023-05-07T06:04:40;18.40;96.40
41318;DHT22;27067;51.554;7.026;2023-05-07T06:07:05;18.40;96.40
41318;DHT22;27067;51.554;7.026;2023-05-07T06:09:31;18.50;96.40
41318;DHT22;27067;51.554;7.026;2023-05-07T06:11:57;18.40;96.60
41318;DHT22;27067;51.554;7.026;2023-05-07T06:14:22;18.40;96.40
41318;DHT22;27067;51.554;7.026;2023-05-07T06:16:48;18.40;96.40
41318;DHT22;27067;51.554;7.026;2023-05-07T06:19:13;18.40;96.40
41318;DHT22;27067;51.554;7.026;2023-05-07T06:21:39;18.40;96.40
41318;DHT22;27067;51.554;7.026;2023-05-07T06:24:06;18.40;96.40
41318;DHT22;27067;51.554;7.026;2023-05-07T06:26:31;18.40;96.40
41318;DHT22;27067;51.554;7.026;2023-05-07T06:28:57;18.40;96.40
41318;DHT22;27067;51.554;7.026;2023-05-07T06:31:22;18.40;96.40
41318;DHT22;27067;51.554;7.026;2023-05-07T06:33:49;18.40;96.40
41318;DHT22;27067;51.554;7.026;2023-05-07T06:36:14;18.30;96.40
41318;DHT22;27067;51.554;7.026;2023-05-07T06:38:40;18.40;96.40
41318;DHT22;27067;51.554;7.026;2023-05-07T06:41:06;18.40;96.40
41318;DHT22;27067;51.554;7.026;2023-05-07T06:43:33;18.40;96.40
41318;DHT22;27067;51.554;7.026;2023-05-07T06:45:58;18.40;96.40
41318;DHT22;27067;51.554;7.026;2023-05-07T06:48:24;18.40;96.30
41318;DHT22;27067;51.554;7.026;2023-05-07T06:50:50;18.40;96.40
41318;DHT22;27067;51.554;7.026;2023-05-07T06:53:15;18.40;96.30
41318;DHT22;27067;51.554;7.026;2023-05-07T06:55:41;18.50;96.40
41318;DHT22;27067;51.554;7.026;2023-05-07T06:58:07;18.40;96.30
41318;DHT22;27067;51.554;7.026;2023-05-07T07:00:33;18.40;96.30
41318;DHT22;27067;51.554;7.026;2023-05-07T07:02:58;18.40;96.30
41318;DHT22;27067;51.554;7.026;2023-05-07T07:05:25;18.40;96.70
41318;DHT22;27067;51.554;7.026;2023-05-07T07:07:50;18.40;96.30
41318;DHT22;27067;51.554;7.026;2023-05-07T07:10:19;18.40;96.60
41318;DHT22;27067;51.554;7.026;2023-05-07T07:12:45;18.40;96.40
41318;DHT22;27067;51.554;7.026;2023-05-07T07:15:11;18.40;96.40
41318;DHT22;27067;51.554;7.026;2023-05-07T07:17:36;18.40;96.40
41318;DHT22;27067;51.554;7.026;2023-05-07T07:20:02;18.40;96.40
41318;DHT22;27067;51.554;7.026;2023-05-07T07:22:28;18.40;96.40
41318;DHT22;27067;51.554;7.026;2023-05-07T07:24:54;18.40;96.30
41318;DHT22;27067;51.554;7.026;2023-05-07T07:27:20;18.40;96.30
41318;DHT22;27067;51.554;7.026;2023-05-07T07:29:45;18.40;96.40
41318;DHT22;27067;51.554;7.026;2023-05-07T07:32:11;18.40;96.40
41318;DHT22;27067;51.554;7.026;2023-05-07T07:34:37;18.40;96.40
41318;DHT22;27067;51.554;7.026;2023-05-07T07:37:02;18.40;96.40
41318;DHT22;27067;51.554;7.026;2023-05-07T07:39:34;18.40;96.40
41318;DHT22;27067;51.554;7.026;2023-05-07T07:42:00;18.40;96.40
41318;DHT22;27067;51.554;7.026;2023-05-07T07:44:27;18.40;96.40
41318;DHT22;27067;51.554;7.026;2023-05-07T07:46:52;18.40;96.40
41318;DHT22;27067;51.554;7.026;2023-05-07T07:49:18;18.40;96.40
41318;DHT22;27067;51.554;7.026;2023-05-07T07:51:43;18.40;96.40
41318;DHT22;27067;51.554;7.026;2023-05-07T07:54:09;18.40;96.40
41318;DHT22;27067;51.554;7.026;2023-05-07T07:56:35;18.40;96.40
41318;DHT22;27067;51.554;7.026;2023-05-07T07:59:01;18.40;96.40
41318;DHT22;27067;51.554;7.026;2023-05-07T08:01:29;18.40;96.40
41318;DHT22;27067;51.554;7.026;2023-05-07T08:03:55;18.40;96.40
41318;DHT22;27067;51.554;7.026;2023-05-07T08:06:20;18.40;96.40
41318;DHT22;27067;51.554;7.026;2023-05-07T08:08:46;18.40;96.40
41318;DHT22;27067;51.554;7.026;2023-05-07T08:11:12;18.40;96.40
41318;DHT22;27067;51.554;7.026;2023-05-07T08:13:38;18.40;96.40
41318;DHT22;27067;51.554;7.026;2023-05-07T08:16:04;18.40;96.40
41318;DHT22;27067;51.554;7.026;2023-05-07T08:18:30;18.40;96.40
41318;DHT22;27067;51.554;7.026;2023-05-07T08:20:55;18.40;96.40
41318;DHT22;27067;51.554;7.026;2023-05-07T08:23:21;18.40;96.40
41318;DHT22;27067;51.554;7.026;2023-05-07T08:25:49;18.40;96.40
41318;DHT22;27067;51.554;7.026;2023-05-07T08:28:15;18.40;96.40
41318;DHT22;27067;51.554;7.026;2023-05-07T08:30:41;18.40;96.40
41318;DHT22;27067;51.554;7.026;2023-05-07T08:33:08;18.40;96.40
41318;DHT22;27067;51.554;7.026;2023-05-07T08:35:33;18.40;96.40
41318;DHT22;27067;51.554;7.026;2023-05-07T08:37:59;18.40;96.50
41318;DHT22;27067;51.554;7.026;2023-05-07T08:40:26;18.40;96.50
41318;DHT22;27067;51.554;7.026;2023-05-07T08:42:52;18.40;96.50
41318;DHT22;27067;51.554;7.026;2023-05-07T08:45:19;18.40;96.70
41318;DHT22;27067;51.554;7.026;2023-05-07T08:47:58;18.40;96.50
41318;DHT22;27067;51.554;7.026;2023-05-07T08:50:25;18.40;96.50
41318;DHT22;27067;51.554;7.026;2023-05-07T08:52:51;18.40;96.50
41318;DHT22;27067;51.554;7.026;2023-05-07T08:55:17;18.40;96.50
41318;DHT22;27067;51.554;7.026;2023-05-07T08:57:43;18.40;96.50
41318;DHT22;27067;51.554;7.026;2023-05-07T09:00:09;18.20;96.40
41318;DHT22;27067;51.554;7.026;2023-05-07T09:02:36;18.40;96.50
41318;DHT22;27067;51.554;7.026;2023-05-07T09:05:02;18.40;96.50
41318;DHT22;27067;51.554;7.026;2023-05-07T09:07:28;18.40;96.50
41318;DHT22;27067;51.554;7.026;2023-05-07T09:09:55;18.50;96.50
41318;DHT22;27067;51.554;7.026;2023-05-07T09:12:22;18.40;96.50
41318;DHT22;27067;51.554;7.026;2023-05-07T09:14:48;18.40;96.50
41318;DHT22;27067;51.554;7.026;2023-05-07T09:17:16;18.40;96.50
41318;DHT22;27067;51.554;7.026;2023-05-07T09:19:42;18.40;96.70
41318;DHT22;27067;51.554;7.026;2023-05-07T09:22:08;18.40;96.50
41318;DHT22;27067;51.554;7.026;2023-05-07T09:24:34;18.40;96.50
41318;DHT22;27067;51.554;7.026;2023-05-07T09:27:02;18.40;96.50
41318;DHT22;27067;51.554;7.026;2023-05-07T09:29:28;18.40;96.50
41318;DHT22;27067;51.554;7.026;2023-05-07T09:31:55;18.40;96.50
41318;DHT22;27067;51.554;7.026;2023-05-07T09:34:21;18.40;96.40
41318;DHT22;27067;51.554;7.026;2023-05-07T09:36:47;18.40;96.50
41318;DHT22;27067;51.554;7.026;2023-05-07T09:39:13;18.40;96.40
41318;DHT22;27067;51.554;7.026;2023-05-07T09:41:46;18.40;96.50
41318;DHT22;27067;51.554;7.026;2023-05-07T09:44:13;18.40;96.50
41318;DHT22;27067;51.554;7.026;2023-05-07T09:46:42;18.40;96.40
41318;DHT22;27067;51.554;7.026;2023-05-07T09:49:13;18.40;96.40
41318;DHT22;27067;51.554;7.026;2023-05-07T09:51:52;18.40;96.40
41318;DHT22;27067;51.554;7.026;2023-05-07T09:54:18;18.40;96.50
41318;DHT22;27067;51.554;7.026;2023-05-07T09:56:52;18.40;96.50
41318;DHT22;27067;51.554;7.026;2023-05-07T09:59:18;18.40;96.40
41318;DHT22;27067;51.554;7.026;2023-05-07T10:01:46;18.40;96.50
41318;DHT22;27067;51.554;7.026;2023-05-07T10:04:12;18.40;96.50
41318;DHT22;27067;51.554;7.026;2023-05-07T10:06:39;18.40;96.50
41318;DHT22;27067;51.554;7.026;2023-05-07T10:09:06;18.40;96.50
41318;DHT22;27067;51.554;7.026;2023-05-07T10:11:36;18.40;96.50
41318;DHT22;27067;51.554;7.026;2023-05-07T10:14:04;18.40;96.50
41318;DHT22;27067;51.554;7.026;2023-05-07T10:16:35;18.40;96.50
41318;DHT22;27067;51.554;7.026;2023-05-07T10:19:05;18.40;96.70
41318;DHT22;27067;51.554;7.026;2023-05-07T10:21:34;18.40;96.50
41318;DHT22;27067;51.554;7.026;2023-05-07T10:24:25;18.40;96.50
41318;DHT22;27067;51.554;7.026;2023-05-07T10:26:52;18.40;96.50
41318;DHT22;27067;51.554;7.026;2023-05-07T10:29:36;18.40;96.50
41318;DHT22;27067;51.554;7.026;2023-05-07T10:34:54;18.40;96.50
41318;DHT22;27067;51.554;7.026;2023-05-07T10:37:21;18.40;96.50
41318;DHT22;27067;51.554;7.026;2023-05-07T10:39:47;18.40;96.50
41318;DHT22;27067;51.554;7.026;2023-05-07T10:42:14;18.40;96.50
41318;DHT22;27067;51.554;7.026;2023-05-07T10:44:40;18.30;96.50
41318;DHT22;27067;51.554;7.026;2023-05-07T10:47:07;18.40;96.50
41318;DHT22;27067;51.554;7.026;2023-05-07T10:49:36;18.40;96.50
41318;DHT22;27067;51.554;7.026;2023-05-07T10:52:22;18.40;96.50
41318;DHT22;27067;51.554;7.026;2023-05-07T10:57:46;18.40;96.50
41318;DHT22;27067;51.554;7.026;2023-05-07T11:05:26;18.40;96.50
41318;DHT22;27067;51.554;7.026;2023-05-07T11:07:59;18.40;96.50
41318;DHT22;27067;51.554;7.026;2023-05-07T11:10:50;18.40;96.50
41318;DHT22;27067;51.554;7.026;2023-05-07T11:13:17;18.40;96.50
41318;DHT22;27067;51.554;7.026;2023-05-07T11:15:47;18.40;96.50
41318;DHT22;27067;51.554;7.026;2023-05-07T11:18:17;18.40;96.50
41318;DHT22;27067;51.554;7.026;2023-05-07T11:20:50;18.40;96.50
41318;DHT22;27067;51.554;7.026;2023-05-07T11:26:07;18.40;96.50
41318;DHT22;27067;51.554;7.026;2023-05-07T11:28:41;18.40;96.50
41318;DHT22;27067;51.554;7.026;2023-05-07T11:31:07;18.40;96.50
41318;DHT22;27067;51.554;7.026;2023-05-07T11:33:34;18.40;96.50
41318;DHT22;27067;51.554;7.026;2023-05-07T11:36:00;18.40;96.50
41318;DHT22;27067;51.554;7.026;2023-05-07T11:38:28;18.40;96.50
41318;DHT22;27067;51.554;7.026;2023-05-07T11:40:59;18.40;96.50
41318;DHT22;27067;51.554;7.026;2023-05-07T11:43:29;18.40;96.50
41318;DHT22;27067;51.554;7.026;2023-05-07T11:46:05;18.40;96.50
41318;DHT22;27067;51.554;7.026;2023-05-07T11:48:31;18.40;96.50
41318;DHT22;27067;51.554;7.026;2023-05-07T11:51:03;18.40;96.50
41318;DHT22;27067;51.554;7.026;2023-05-07T11:53:36;18.40;96.50
41318;DHT22;27067;51.554;7.026;2023-05-07T11:56:13;18.40;96.60
41318;DHT22;27067;51.554;7.026;2023-05-07T11:58:39;18.40;96.50
41318;DHT22;27067;51.554;7.026;2023-05-07T12:01:07;18.40;96.60
41318;DHT22;27067;51.554;7.026;2023-05-07T12:03:34;18.40;96.50
41318;DHT22;27067;51.554;7.026;2023-05-07T12:06:00;18.40;96.50
41318;DHT22;27067;51.554;7.026;2023-05-07T12:08:26;18.40;96.50
41318;DHT22;27067;51.554;7.026;2023-05-07T12:10:51;18.40;96.50
41318;DHT22;27067;51.554;7.026;2023-05-07T12:13:19;18.40;96.50
41318;DHT22;27067;51.554;7.026;2023-05-07T12:15:44;18.40;96.60
41318;DHT22;27067;51.554;7.026;2023-05-07T12:18:11;18.40;96.50
41318;DHT22;27067;51.554;7.026;2023-05-07T12:20:37;18.40;96.60
41318;DHT22;27067;51.554;7.026;2023-05-07T12:23:03;18.40;96.60
41318;DHT22;27067;51.554;7.026;2023-05-07T12:25:36;18.40;96.60
41318;DHT22;27067;51.554;7.026;2023-05-07T12:28:02;18.40;96.60
41318;DHT22;27067;51.554;7.026;2023-05-07T12:30:39;18.40;96.50
41318;DHT22;27067;51.554;7.026;2023-05-07T12:33:05;18.40;96.50
41318;DHT22;27067;51.554;7.026;2023-05-07T12:35:36;18.40;96.60
41318;DHT22;27067;51.554;7.026;2023-05-07T12:38:02;18.40;96.60
41318;DHT22;27067;51.554;7.026;2023-05-07T12:40:43;18.40;96.60
41318;DHT22;27067;51.554;7.026;2023-05-07T12:43:27;18.40;96.60
41318;DHT22;27067;51.554;7.026;2023-05-07T12:45:56;18.40;96.60
41318;DHT22;27067;51.554;7.026;2023-05-07T12:48:22;18.40;96.60
41318;DHT22;27067;51.554;7.026;2023-05-07T12:50:55;18.40;96.60
41318;DHT22;27067;51.554;7.026;2023-05-07T12:53:23;18.40;96.60
41318;DHT22;27067;51.554;7.026;2023-05-07T12:55:51;18.40;96.60
41318;DHT22;27067;51.554;7.026;2023-05-07T12:58:17;18.40;96.60
41318;DHT22;27067;51.554;7.026;2023-05-07T13:00:44;18.40;96.60
41318;DHT22;27067;51.554;7.026;2023-05-07T13:03:11;18.40;96.60
41318;DHT22;27067;51.554;7.026;2023-05-07T13:05:36;18.50;96.60
41318;DHT22;27067;51.554;7.026;2023-05-07T13:08:02;18.40;96.60
41318;DHT22;27067;51.554;7.026;2023-05-07T13:10:28;18.40;96.60
41318;DHT22;27067;51.554;7.026;2023-05-07T13:12:54;18.40;96.60
41318;DHT22;27067;51.554;7.026;2023-05-07T13:15:20;18.40;96.90
41318;DHT22;27067;51.554;7.026;2023-05-07T13:17:47;18.40;96.60
41318;DHT22;27067;51.554;7.026;2023-05-07T13:20:12;18.40;96.60
41318;DHT22;27067;51.554;7.026;2023-05-07T13:22:39;18.40;96.60
41318;DHT22;27067;51.554;7.026;2023-05-07T13:25:05;18.40;96.60
41318;DHT22;27067;51.554;7.026;2023-05-07T13:27:31;18.40;96.60
41318;DHT22;27067;51.554;7.026;2023-05-07T13:29:57;18.50;96.70
41318;DHT22;27067;51.554;7.026;2023-05-07T13:32:23;18.50;96.70
41318;DHT22;27067;51.554;7.026;2023-05-07T13:34:48;18.40;96.60
41318;DHT22;27067;51.554;7.026;2023-05-07T13:37:14;18.40;96.60
41318;DHT22;27067;51.554;7.026;2023-05-07T13:39:40;18.40;96.60
41318;DHT22;27067;51.554;7.026;2023-05-07T13:42:06;18.40;96.60
41318;DHT22;27067;51.554;7.026;2023-05-07T13:44:32;18.40;96.60
41318;DHT22;27067;51.554;7.026;2023-05-07T13:46:58;18.50;96.60
41318;DHT22;27067;51.554;7.026;2023-05-07T13:49:24;18.50;96.60
41318;DHT22;27067;51.554;7.026;2023-05-07T13:51:49;18.50;96.70
41318;DHT22;27067;51.554;7.026;2023-05-07T13:54:15;18.50;96.60
41318;DHT22;27067;51.554;7.026;2023-05-07T13:56:41;18.50;96.60
41318;DHT22;27067;51.554;7.026;2023-05-07T13:59:07;18.40;96.60
41318;DHT22;27067;51.554;7.026;2023-05-07T14:01:32;18.40;96.60
41318;DHT22;27067;51.554;7.026;2023-05-07T14:03:58;18.40;96.70
41318;DHT22;27067;51.554;7.026;2023-05-07T14:06:24;18.40;96.60
41318;DHT22;27067;51.554;7.026;2023-05-07T14:08:50;18.50;96.70
41318;DHT22;27067;51.554;7.026;2023-05-07T14:11:16;18.50;96.70
41318;DHT22;27067;51.554;7.026;2023-05-07T14:13:41;18.40;96.70
41318;DHT22;27067;51.554;7.026;2023-05-07T14:16:07;18.50;96.70
41318;DHT22;27067;51.554;7.026;2023-05-07T14:18:33;18.50;96.70
41318;DHT22;27067;51.554;7.026;2023-05-07T14:21:00;18.50;96.70
41318;DHT22;27067;51.554;7.026;2023-05-07T14:23:26;18.40;96.70
41318;DHT22;27067;51.554;7.026;2023-05-07T14:25:52;18.40;96.70
41318;DHT22;27067;51.554;7.026;2023-05-07T14:28:18;18.50;96.70
41318;DHT22;27067;51.554;7.026;2023-05-07T14:30:44;18.40;96.70
41318;DHT22;27067;51.554;7.026;2023-05-07T14:33:10;18.40;96.70
41318;DHT22;27067;51.554;7.026;2023-05-07T14:35:36;18.50;96.70
41318;DHT22;27067;51.554;7.026;2023-05-07T14:38:02;18.40;96.70
41318;DHT22;27067;51.554;7.026;2023-05-07T14:40:28;18.40;96.70
41318;DHT22;27067;51.554;7.026;2023-05-07T14:42:53;18.40;96.70
41318;DHT22;27067;51.554;7.026;2023-05-07T14:45:20;18.50;96.70
41318;DHT22;27067;51.554;7.026;2023-05-07T14:47:46;18.50;96.70
41318;DHT22;27067;51.554;7.026;2023-05-07T14:50:11;18.40;96.70
41318;DHT22;27067;51.554;7.026;2023-05-07T14:52:37;18.50;96.80
41318;DHT22;27067;51.554;7.026;2023-05-07T14:55:03;18.40;97.00
41318;DHT22;27067;51.554;7.026;2023-05-07T14:57:29;18.40;96.70
41318;DHT22;27067;51.554;7.026;2023-05-07T14:59:54;18.50;96.80
41318;DHT22;27067;51.554;7.026;2023-05-07T15:02:20;18.40;96.80
41318;DHT22;27067;51.554;7.026;2023-05-07T15:04:46;18.40;96.80
41318;DHT22;27067;51.554;7.026;2023-05-07T15:07:12;18.40;96.80
41318;DHT22;27067;51.554;7.026;2023-05-07T15:09:44;18.50;97.10
41318;DHT22;27067;51.554;7.026;2023-05-07T15:12:10;18.50;96.80
41318;DHT22;27067;51.554;7.026;2023-05-07T15:14:37;18.50;96.80
41318;DHT22;27067;51.554;7.026;2023-05-07T15:17:04;18.50;96.80
41318;DHT22;27067;51.554;7.026;2023-05-07T15:19:30;18.40;96.80
41318;DHT22;27067;51.554;7.026;2023-05-07T15:21:58;18.50;96.80
41318;DHT22;27067;51.554;7.026;2023-05-07T15:24:30;18.40;96.80
41318;DHT22;27067;51.554;7.026;2023-05-07T15:26:56;18.50;96.80
41318;DHT22;27067;51.554;7.026;2023-05-07T15:29:23;18.50;96.80
41318;DHT22;27067;51.554;7.026;2023-05-07T15:31:49;18.50;96.80
41318;DHT22;27067;51.554;7.026;2023-05-07T15:34:14;18.50;96.80
41318;DHT22;27067;51.554;7.026;2023-05-07T15:36:40;18.50;96.80
41318;DHT22;27067;51.554;7.026;2023-05-07T15:39:06;18.40;96.80
41318;DHT22;27067;51.554;7.026;2023-05-07T15:41:32;18.50;96.80